Time;durP1;ratioP1;P1;durP2;ratioP2;P2;SDS_P1;SDS_P2;PMS_P1;PMS_P2;Temp;Humidity;BMP_temperature;BMP_pressure;BME280_temperature;BME280_humidity;BME280_pressure;Samples;Min_cycle;Max_cycle;Signal;HPM_P1;HPM_P2
2023/08/25 00:00:50;;;;;;;6.63;3.13;;;18.10;99.90;;;19.13;100.00;97667.25;5073482;28;20466;-76
2023/08/25 00:03:19;;;;;;;7.03;3.17;;;18.10;99.90;;;19.15;100.00;97667.81;5072600;28;20464;-76
2023/08/25 00:05:53;;;;;;;4.73;3.20;;;18.10;99.90;;;19.13;100.00;97657.47;5070027;28;21095;-76
2023/08/25 00:08:22;;;;;;;8.23;3.33;;;18.00;99.90;;;19.08;100.00;97663.53;5071422;28;20882;-76
2023/08/25 00:10:53;;;;;;;8.70;2.93;;;18.10;99.90;;;19.10;100.00;97663.25;5072586;28;20464;-76
2023/08/25 00:13:23;;;;;;;6.23;3.00;;;18.10;99.90;;;19.14;100.00;97661.72;5071183;28;20463;-76
2023/08/25 00:15:52;;;;;;;13.63;2.90;;;18.10;99.90;;;19.09;100.00;97667.75;5072108;28;20476;-76
2023/08/25 00:18:21;;;;;;;8.70;3.60;;;18.00;99.90;;;19.09;100.00;97666.97;5072435;28;20634;-76
2023/08/25 00:20:50;;;;;;;7.40;2.90;;;18.00;99.90;;;19.08;100.00;97665.38;5073850;28;20538;-76
2023/08/25 00:23:19;;;;;;;3.37;2.87;;;18.00;99.90;;;19.08;100.00;97670.69;5072766;28;20459;-76
2023/08/25 00:25:48;;;;;;;5.10;3.07;;;18.00;99.90;;;19.07;100.00;97671.72;5073989;28;20489;-76
2023/08/25 00:28:19;;;;;;;8.10;2.93;;;18.00;99.90;;;19.01;100.00;97664.78;5075033;28;20459;-76
2023/08/25 00:30:49;;;;;;;4.90;2.70;;;18.00;99.90;;;18.95;100.00;97660.47;5075645;28;20462;-76
2023/08/25 00:33:20;;;;;;;7.03;2.77;;;18.00;99.90;;;18.95;100.00;97668.44;5074331;28;20551;-76
2023/08/25 00:35:50;;;;;;;10.43;2.90;;;18.00;99.90;;;18.94;100.00;97667.63;5074338;28;20470;-76
2023/08/25 00:38:20;;;;;;;3.27;2.77;;;18.00;99.90;;;18.94;100.00;97658.88;5076052;28;21258;-76
2023/08/25 00:40:49;;;;;;;3.67;3.07;;;18.00;99.90;;;18.97;100.00;97653.06;5074540;28;20857;-76
2023/08/25 00:43:20;;;;;;;3.07;2.60;;;18.00;99.90;;;18.97;100.00;97648.56;5075592;28;20459;-76
2023/08/25 00:45:50;;;;;;;5.83;2.40;;;18.00;99.90;;;18.96;100.00;97643.50;5071623;28;20512;-76
2023/08/25 00:48:19;;;;;;;7.00;2.70;;;17.90;99.90;;;18.92;100.00;97640.56;5074641;28;20463;-76
2023/08/25 00:50:51;;;;;;;5.87;3.30;;;18.00;99.90;;;18.90;100.00;97645.31;5076218;28;20456;-76
2023/08/25 00:53:22;;;;;;;7.80;2.90;;;18.10;99.90;;;18.90;100.00;97647.16;5073610;28;20456;-76
2023/08/25 00:55:52;;;;;;;2.60;2.40;;;18.00;99.90;;;18.92;100.00;97650.34;5073793;28;20463;-77
2023/08/25 00:58:24;;;;;;;5.67;2.67;;;18.00;99.90;;;18.93;100.00;97644.00;5073633;28;20493;-76
2023/08/25 01:00:56;;;;;;;8.80;3.33;;;18.00;99.90;;;18.95;100.00;97636.63;5073307;28;20468;-75
2023/08/25 01:03:26;;;;;;;7.47;2.70;;;18.00;99.90;;;18.95;100.00;97618.84;5074626;28;20459;-76
2023/08/25 01:05:57;;;;;;;13.47;3.77;;;17.90;99.90;;;18.96;100.00;97614.34;5072332;28;20452;-76
2023/08/25 01:08:27;;;;;;;21.37;3.90;;;17.90;99.90;;;18.95;100.00;97612.78;5073227;28;20494;-76
2023/08/25 01:11:14;;;;;;;7.43;4.17;;;18.00;99.90;;;18.94;100.00;97625.22;5074757;28;21025;-75
2023/08/25 01:13:54;;;;;;;6.97;3.83;;;18.00;99.90;;;18.93;100.00;97630.75;5073468;28;20452;-76
2023/08/25 01:16:36;;;;;;;5.80;3.63;;;18.00;99.90;;;18.90;100.00;97633.91;5073837;28;20475;-76
2023/08/25 01:19:11;;;;;;;6.10;4.63;;;18.00;99.90;;;18.88;100.00;97628.84;5075253;28;21058;-78
2023/08/25 01:21:52;;;;;;;7.43;4.07;;;18.10;99.90;;;18.90;100.00;97618.81;5074370;28;20458;-75
2023/08/25 01:24:29;;;;;;;10.30;3.83;;;18.10;99.90;;;18.91;100.00;97627.56;5074312;28;20479;-76
2023/08/25 01:27:04;;;;;;;7.17;3.77;;;18.00;99.90;;;18.91;100.00;97628.38;5077436;28;20466;-76
2023/08/25 01:29:42;;;;;;;5.43;3.97;;;18.00;99.90;;;18.87;100.00;97634.41;5074891;28;20466;-76
2023/08/25 01:32:11;;;;;;;9.43;3.90;;;18.00;99.90;;;18.86;100.00;97625.66;5070857;28;20479;-77
2023/08/25 01:34:46;;;;;;;4.27;3.30;;;18.00;99.90;;;18.89;100.00;97619.06;5073915;28;20551;-76
2023/08/25 01:37:31;;;;;;;8.97;4.30;;;18.00;99.90;;;18.85;100.00;97629.34;5076467;28;20455;-76
2023/08/25 01:40:08;;;;;;;6.83;3.73;;;17.90;99.90;;;18.86;100.00;97635.47;5075558;28;20492;-76
2023/08/25 01:42:43;;;;;;;6.00;3.23;;;17.90;99.90;;;18.86;100.00;97630.16;5073947;28;20558;-76
2023/08/25 01:45:15;;;;;;;6.40;3.67;;;17.80;99.90;;;18.86;100.00;97640.75;5070715;28;20490;-76
2023/08/25 01:47:48;;;;;;;10.37;3.40;;;17.90;99.90;;;18.85;100.00;97633.84;5076208;28;20464;-76
2023/08/25 01:50:21;;;;;;;10.90;3.73;;;17.80;99.90;;;18.82;100.00;97640.47;5073688;28;20939;-76
2023/08/25 01:52:52;;;;;;;8.73;3.63;;;17.80;99.90;;;18.83;100.00;97635.97;5075318;28;20492;-76
2023/08/25 01:55:22;;;;;;;19.50;4.20;;;17.80;99.90;;;18.80;100.00;97641.75;5074347;28;20551;-77
2023/08/25 01:57:54;;;;;;;9.57;4.00;;;17.80;99.90;;;18.81;100.00;97638.06;5078748;28;20470;-76
2023/08/25 02:00:24;;;;;;;3.87;3.30;;;17.80;99.90;;;18.79;100.00;97634.84;5076912;28;20486;-76
2023/08/25 02:02:55;;;;;;;6.53;3.60;;;17.70;99.90;;;18.77;100.00;97631.66;5075994;28;20539;-76
2023/08/25 02:05:24;;;;;;;16.53;3.30;;;17.80;99.90;;;18.77;100.00;97631.66;5077143;28;21044;-76
2023/08/25 02:07:54;;;;;;;5.80;2.83;;;17.70;99.90;;;18.76;100.00;97632.72;5075255;28;20502;-76
2023/08/25 02:10:23;;;;;;;6.73;3.27;;;17.70;99.90;;;18.75;100.00;97641.69;5078692;28;20502;-76
2023/08/25 02:12:54;;;;;;;3.70;3.27;;;17.70;99.90;;;18.72;100.00;97635.06;5077214;28;20535;-76
2023/08/25 02:15:24;;;;;;;8.97;3.70;;;17.80;99.90;;;18.72;100.00;97623.66;5074658;28;20464;-76
2023/08/25 02:17:55;;;;;;;7.80;3.10;;;17.80;99.90;;;18.72;100.00;97628.94;5074483;28;20479;-76
2023/08/25 02:20:25;;;;;;;4.80;3.17;;;17.80;99.90;;;18.69;100.00;97626.81;5078109;28;20484;-76
2023/08/25 02:22:55;;;;;;;5.13;3.70;;;17.70;99.90;;;18.69;100.00;97621.50;5078375;28;20456;-78
2023/08/25 02:25:25;;;;;;;12.40;4.00;;;17.60;99.90;;;18.68;100.00;97627.84;5078217;28;20452;-76
2023/08/25 02:27:57;;;;;;;10.33;3.10;;;17.60;99.90;;;18.69;100.00;97630.25;5077941;28;20513;-76
2023/08/25 02:30:28;;;;;;;6.30;3.10;;;17.60;99.90;;;18.68;100.00;97623.34;5078060;28;20466;-76
2023/08/25 02:32:57;;;;;;;6.00;3.40;;;17.60;99.90;;;18.70;100.00;97620.47;5078858;28;20447;-76
2023/08/25 02:35:28;;;;;;;9.40;3.37;;;17.70;99.90;;;18.66;100.00;97619.34;5078358;28;20470;-76
2023/08/25 02:38:00;;;;;;;8.87;3.00;;;17.70;99.90;;;18.64;100.00;97616.16;5077374;28;20457;-76
2023/08/25 02:40:30;;;;;;;5.70;3.50;;;17.70;99.90;;;18.64;100.00;97613.53;5080336;28;20578;-76
2023/08/25 02:43:04;;;;;;;5.63;2.90;;;17.70;99.90;;;18.64;100.00;97611.66;5076502;28;20514;-76
2023/08/25 02:45:34;;;;;;;3.17;2.83;;;17.70;99.90;;;18.65;100.00;97601.84;5076138;28;20476;-75
2023/08/25 02:48:05;;;;;;;4.80;3.60;;;17.60;99.90;;;18.60;100.00;97602.63;5078873;28;20455;-76
2023/08/25 02:50:35;;;;;;;5.53;3.30;;;17.70;99.90;;;18.60;100.00;97606.03;5073666;28;20471;-76
2023/08/25 02:53:05;;;;;;;4.30;3.40;;;17.60;99.90;;;18.56;100.00;97586.44;5074418;28;20796;-76
2023/08/25 02:55:35;;;;;;;10.83;3.77;;;17.50;99.90;;;18.57;100.00;97580.06;5074122;28;20456;-76
2023/08/25 02:58:06;;;;;;;10.27;3.27;;;17.60;99.90;;;18.58;100.00;97580.88;5075421;28;20974;-76
2023/08/25 03:00:35;;;;;;;10.47;3.53;;;17.60;99.90;;;18.60;100.00;97581.44;5073758;28;20491;-76
2023/08/25 03:03:07;;;;;;;7.53;3.60;;;17.60;99.90;;;18.59;100.00;97572.69;5075506;28;20456;-76
2023/08/25 03:05:39;;;;;;;10.57;3.40;;;17.70;99.90;;;18.59;100.00;97571.88;5076583;28;20501;-76
2023/08/25 03:08:12;;;;;;;17.57;3.50;;;17.60;99.90;;;18.60;100.00;97574.25;5074011;28;20488;-76
2023/08/25 03:10:44;;;;;;;6.00;3.93;;;17.70;99.90;;;18.64;100.00;97563.19;5076526;28;20454;-76
2023/08/25 03:13:15;;;;;;;9.10;3.30;;;17.70;99.90;;;18.63;100.00;97557.09;5078362;28;20491;-76
2023/08/25 03:15:54;;;;;;;5.10;3.80;;;17.80;99.90;;;18.58;100.00;97541.94;5078658;28;20559;-79
2023/08/25 03:18:24;;;;;;;3.73;2.70;;;17.70;99.90;;;18.57;100.00;97537.69;5075859;28;20475;-77
2023/08/25 03:20:54;;;;;;;4.50;3.00;;;17.80;99.90;;;18.56;100.00;97532.66;5076083;28;21193;-76
2023/08/25 03:23:24;;;;;;;2.83;2.50;;;17.80;99.90;;;18.60;100.00;97517.88;5078907;28;20467;-76
2023/08/25 03:25:54;;;;;;;8.00;2.80;;;17.80;99.90;;;18.65;100.00;97527.69;5075817;28;20460;-76
2023/08/25 03:28:24;;;;;;;5.03;3.37;;;17.80;99.90;;;18.66;100.00;97539.91;5076975;28;20529;-76
2023/08/25 03:30:55;;;;;;;21.63;13.63;;;17.80;99.90;;;18.62;100.00;97554.69;5077457;28;21051;-76
2023/08/25 03:33:25;;;;;;;7.50;5.57;;;17.80;99.90;;;18.62;100.00;97549.38;5076599;28;20851;-76
2023/08/25 03:35:56;;;;;;;5.33;4.10;;;17.90;99.90;;;18.56;100.00;97522.06;5080559;28;20467;-76
2023/08/25 03:38:26;;;;;;;8.50;3.50;;;17.80;99.90;;;18.54;100.00;97522.31;5079020;28;20464;-76
2023/08/25 03:40:59;;;;;;;5.63;3.30;;;17.90;99.90;;;18.56;100.00;97498.22;5079049;28;20581;-76
2023/08/25 03:43:30;;;;;;;5.80;4.33;;;17.80;99.90;;;18.52;100.00;97497.94;5075075;28;20543;-76
2023/08/25 03:46:00;;;;;;;8.93;4.23;;;18.00;99.90;;;18.59;100.00;97479.19;5073478;28;20517;-77
2023/08/25 03:48:30;;;;;;;6.43;4.30;;;17.80;99.90;;;18.61;100.00;97474.41;5073723;28;21121;-77
2023/08/25 03:51:01;;;;;;;8.70;4.73;;;17.90;99.90;;;18.67;100.00;97462.03;5073593;28;20464;-76
2023/08/25 03:53:31;;;;;;;6.87;4.53;;;17.90;99.90;;;18.68;100.00;97469.72;5073669;28;20575;-76
2023/08/25 03:56:02;;;;;;;13.53;4.97;;;17.90;99.90;;;18.68;100.00;97461.75;5074784;28;20480;-76
2023/08/25 03:58:33;;;;;;;7.20;4.63;;;18.00;99.90;;;18.74;100.00;97465.28;5078182;28;20965;-76
2023/08/25 04:01:03;;;;;;;6.57;4.80;;;18.00;99.90;;;18.76;100.00;97476.41;5074326;28;20863;-77
2023/08/25 04:03:33;;;;;;;9.90;5.13;;;18.00;99.90;;;18.79;100.00;97482.00;5074102;28;20468;-76
2023/08/25 04:06:03;;;;;;;18.90;9.00;;;17.90;99.90;;;18.78;100.00;97475.09;5074471;28;21168;-77
2023/08/25 04:08:32;;;;;;;19.60;8.80;;;18.10;99.90;;;18.81;100.00;97490.47;5075585;28;20470;-76
2023/08/25 04:11:02;;;;;;;12.43;7.10;;;18.10;99.90;;;18.81;100.00;97502.94;5072785;28;20870;-76
2023/08/25 04:13:33;;;;;;;16.03;6.70;;;18.10;99.90;;;18.83;100.00;97498.19;5073762;28;20992;-76
2023/08/25 04:16:04;;;;;;;10.83;7.37;;;18.10;99.90;;;18.85;100.00;97501.38;5075176;28;20811;-77
2023/08/25 04:18:34;;;;;;;17.70;7.47;;;18.10;99.90;;;18.86;100.00;97500.31;5075069;28;20526;-76
2023/08/25 04:21:04;;;;;;;11.57;7.70;;;18.00;99.90;;;18.84;100.00;97497.94;5074323;28;20475;-77
2023/08/25 04:23:36;;;;;;;10.50;5.87;;;18.10;99.90;;;18.86;100.00;97493.19;5076902;28;20483;-77
2023/08/25 04:26:07;;;;;;;12.33;5.50;;;18.10;99.90;;;18.89;100.00;97502.47;5076280;28;20462;-76
2023/08/25 04:28:38;;;;;;;13.00;7.40;;;18.10;99.90;;;18.92;100.00;97515.19;5072673;28;20491;-76
2023/08/25 04:31:08;;;;;;;9.97;6.50;;;18.10;99.90;;;18.90;100.00;97522.63;5073186;28;20463;-76
2023/08/25 04:33:38;;;;;;;12.57;6.27;;;18.10;99.90;;;18.88;100.00;97522.84;5072679;28;20459;-76
2023/08/25 04:36:13;;;;;;;11.50;6.60;;;18.20;99.90;;;18.90;100.00;97531.38;5077959;28;20464;-76
2023/08/25 04:38:44;;;;;;;15.53;6.10;;;18.20;99.90;;;18.91;100.00;97529.53;5075893;28;20814;-76
2023/08/25 04:41:13;;;;;;;12.47;6.17;;;18.20;99.90;;;18.91;100.00;97534.81;5075077;28;21491;-77
2023/08/25 04:43:44;;;;;;;12.50;6.67;;;18.20;99.90;;;18.95;100.00;97549.94;5075184;28;20483;-77
2023/08/25 04:46:14;;;;;;;25.97;9.77;;;18.10;99.90;;;18.95;100.00;97573.03;5073797;28;20575;-77
2023/08/25 04:48:46;;;;;;;21.57;10.20;;;18.20;99.90;;;18.95;100.00;97608.25;5077201;28;20463;-77
2023/08/25 04:51:15;;;;;;;20.60;13.30;;;18.20;99.90;;;18.96;100.00;97631.06;5077326;28;20957;-77
2023/08/25 04:53:45;;;;;;;23.37;11.90;;;18.30;99.90;;;19.02;100.00;97618.69;5075969;28;20482;-77
2023/08/25 04:56:17;;;;;;;22.50;10.87;;;18.30;99.90;;;19.05;100.00;97618.16;5076390;28;20464;-78
2023/08/25 04:58:49;;;;;;;22.33;12.60;;;18.30;99.90;;;19.08;100.00;97617.66;5076717;28;20466;-77
2023/08/25 05:01:19;;;;;;;18.77;11.60;;;18.30;99.90;;;19.12;100.00;97592.25;5075470;28;21032;-77
2023/08/25 05:03:50;;;;;;;20.67;12.33;;;18.40;99.90;;;19.14;100.00;97584.84;5077223;28;20467;-78
2023/08/25 05:06:19;;;;;;;16.73;11.70;;;18.40;99.90;;;19.17;100.00;97568.44;5076807;28;20468;-77
2023/08/25 05:08:48;;;;;;;23.93;11.20;;;18.40;99.90;;;19.20;100.00;97562.63;5077310;28;20471;-77
2023/08/25 05:11:18;;;;;;;19.60;11.00;;;18.40;99.90;;;19.19;100.00;97573.47;5077463;28;20734;-76
2023/08/25 05:13:50;;;;;;;15.70;10.27;;;18.30;99.90;;;19.20;100.00;97583.00;5077888;28;20506;-77
2023/08/25 05:16:20;;;;;;;14.37;10.73;;;18.40;99.90;;;19.22;100.00;97578.28;5076807;28;20547;-77
2023/08/25 05:18:51;;;;;;;17.63;10.27;;;18.40;99.90;;;19.22;100.00;97565.81;5077628;28;20458;-77
2023/08/25 05:21:21;;;;;;;15.30;10.57;;;18.40;99.90;;;19.23;100.00;97596.56;5078215;28;20486;-77
2023/08/25 05:24:11;;;;;;;18.30;11.90;;;18.40;99.90;;;19.23;100.00;97599.22;5077330;28;20837;-77
2023/08/25 05:26:41;;;;;;;20.80;10.87;;;18.30;99.90;;;19.22;100.00;97595.00;5078093;28;20488;-77
2023/08/25 05:29:13;;;;;;;18.70;11.13;;;18.40;99.90;;;19.23;100.00;97582.53;5077956;28;21011;-77
2023/08/25 05:31:43;;;;;;;19.40;11.00;;;18.50;99.90;;;19.26;100.00;97572.22;5078860;28;20471;-77
2023/08/25 05:34:12;;;;;;;17.27;11.53;;;18.50;99.90;;;19.27;100.00;97565.84;5078512;28;20463;-78
2023/08/25 05:36:41;;;;;;;13.80;9.97;;;18.40;99.90;;;19.26;100.00;97508.59;5080150;28;20455;-77
2023/08/25 05:39:12;;;;;;;18.73;9.83;;;18.50;99.90;;;19.25;100.00;97533.50;5079022;28;20456;-77
2023/08/25 05:41:41;;;;;;;14.00;10.03;;;18.60;99.90;;;19.26;100.00;97551.00;5078095;28;20499;-77
2023/08/25 05:44:12;;;;;;;15.67;10.23;;;18.70;99.90;;;19.30;100.00;97541.47;5077391;28;20857;-77
2023/08/25 05:46:41;;;;;;;17.00;10.47;;;18.60;99.90;;;19.34;100.00;97529.31;5077432;28;20452;-77
2023/08/25 05:49:11;;;;;;;24.53;11.37;;;18.60;99.90;;;19.37;100.00;97509.41;5079764;28;20465;-77
2023/08/25 05:51:41;;;;;;;17.33;10.57;;;18.60;99.90;;;19.40;100.00;97507.06;5076859;28;20481;-77
2023/08/25 05:54:12;;;;;;;21.97;10.13;;;18.60;99.90;;;19.44;100.00;97521.44;5080235;28;20460;-77
2023/08/25 05:56:42;;;;;;;18.77;10.10;;;18.60;99.90;;;19.45;100.00;97517.75;5080614;28;20459;-78
2023/08/25 05:59:12;;;;;;;17.07;10.53;;;18.60;99.90;;;19.49;100.00;97515.38;5080198;28;20581;-77
2023/08/25 06:01:42;;;;;;;19.40;9.87;;;18.60;99.90;;;19.50;100.00;97519.63;5078114;28;20886;-78
2023/08/25 06:04:14;;;;;;;13.60;9.63;;;18.60;99.90;;;19.47;100.00;97523.56;5080244;28;20466;-78
2023/08/25 06:06:44;;;;;;;17.50;11.00;;;18.70;99.90;;;19.50;100.00;97541.66;5079718;28;20464;-78
2023/08/25 06:09:15;;;;;;;14.37;9.93;;;18.80;99.90;;;19.51;100.00;97532.63;5079455;28;20506;-78
2023/08/25 06:11:45;;;;;;;14.77;9.70;;;18.90;99.90;;;19.54;100.00;97526.81;5080400;28;20465;-77
2023/08/25 06:14:18;;;;;;;13.40;10.00;;;18.80;99.90;;;19.60;100.00;97543.56;5080848;28;20865;-77
2023/08/25 06:16:48;;;;;;;16.67;9.37;;;18.80;99.90;;;19.64;100.00;97559.78;5080896;28;20460;-78
2023/08/25 06:19:19;;;;;;;15.00;9.90;;;18.80;99.90;;;19.67;100.00;97562.72;5079277;28;20459;-78
2023/08/25 06:21:50;;;;;;;13.87;9.77;;;18.80;99.90;;;19.70;100.00;97545.47;5081065;28;20499;-77
2023/08/25 06:24:20;;;;;;;18.30;9.50;;;18.80;99.90;;;19.70;100.00;97546.28;5079370;28;20458;-77
2023/08/25 06:26:51;;;;;;;15.83;10.10;;;18.80;99.90;;;19.74;100.00;97533.28;5081608;28;20462;-77
2023/08/25 06:29:23;;;;;;;14.33;9.50;;;18.90;99.90;;;19.76;100.00;97533.81;5077959;28;20949;-77
2023/08/25 06:31:53;;;;;;;15.93;10.37;;;18.90;99.90;;;19.77;100.00;97524.81;5077425;28;20464;-77
2023/08/25 06:34:23;;;;;;;10.97;8.70;;;18.90;99.90;;;19.79;100.00;97517.38;5078732;28;20989;-77
2023/08/25 06:36:53;;;;;;;15.87;10.80;;;18.90;99.90;;;19.81;100.00;97516.09;5079349;28;20989;-77
2023/08/25 06:39:23;;;;;;;14.27;9.63;;;18.90;99.90;;;19.84;100.00;97522.72;5078923;28;20460;-78
2023/08/25 06:41:53;;;;;;;13.97;9.93;;;19.00;99.90;;;19.84;100.00;97520.88;5078934;28;20496;-77
2023/08/25 06:44:25;;;;;;;13.60;10.03;;;19.00;99.90;;;19.86;100.00;97512.63;5078030;28;20558;-77
2023/08/25 06:46:55;;;;;;;14.80;10.00;;;19.00;99.90;;;19.88;100.00;97499.91;5078824;28;20452;-77
2023/08/25 06:49:28;;;;;;;14.77;9.97;;;19.00;99.90;;;19.87;100.00;97514.22;5079306;28;21039;-77
2023/08/25 06:51:59;;;;;;;12.77;9.97;;;19.10;99.90;;;19.90;100.00;97517.16;5079342;28;20468;-77
2023/08/25 06:54:30;;;;;;;13.40;10.53;;;19.10;99.90;;;19.90;100.00;97522.47;5078360;28;20585;-77
2023/08/25 06:57:00;;;;;;;12.37;9.87;;;19.10;99.90;;;19.93;100.00;97529.13;5081099;28;20491;-77
2023/08/25 06:59:32;;;;;;;16.30;10.60;;;19.10;99.90;;;19.98;100.00;97539.78;5078084;28;20466;-77
2023/08/25 07:02:03;;;;;;;21.63;10.37;;;19.10;99.90;;;20.01;100.00;97547.22;5077903;28;20598;-77
2023/08/25 07:04:33;;;;;;;15.40;8.70;;;19.10;99.90;;;20.04;100.00;97546.69;5077631;28;20464;-78
2023/08/25 07:07:03;;;;;;;16.57;10.93;;;19.10;99.90;;;20.05;100.00;97537.66;5076346;28;20476;-77
2023/08/25 07:09:33;;;;;;;12.63;9.63;;;19.20;99.90;;;20.07;100.00;97540.84;5078349;28;21014;-77
2023/08/25 07:12:04;;;;;;;10.70;8.53;;;19.20;99.90;;;20.09;100.00;97533.44;5076875;28;20470;-77
2023/08/25 07:14:37;;;;;;;10.73;8.33;;;19.30;99.90;;;20.13;100.00;97550.47;5074290;28;20521;-77
2023/08/25 07:17:08;;;;;;;9.90;7.47;;;19.30;99.90;;;20.16;100.00;97555.25;5078183;28;20823;-78
2023/08/25 07:19:41;;;;;;;17.73;8.70;;;19.30;99.90;;;20.20;100.00;97550.97;5077171;28;20448;-77
2023/08/25 07:22:10;;;;;;;7.90;6.30;;;19.40;99.90;;;20.21;100.00;97536.66;5075802;28;21009;-77
2023/08/25 07:24:40;;;;;;;11.23;7.60;;;19.50;99.90;;;20.26;100.00;97531.38;5076805;28;20456;-77
2023/08/25 07:27:11;;;;;;;10.10;7.83;;;19.50;99.90;;;20.32;100.00;97529.56;5079715;28;20491;-77
2023/08/25 07:29:42;;;;;;;11.13;6.70;;;19.50;99.90;;;20.33;100.00;97537.28;5080200;28;20463;-77
2023/08/25 07:32:13;;;;;;;9.70;6.60;;;19.50;99.90;;;20.39;100.00;97535.41;5076563;28;20485;-77
2023/08/25 07:34:45;;;;;;;9.03;6.60;;;19.60;99.90;;;20.45;100.00;97537.00;5080370;28;20452;-78
2023/08/25 07:37:15;;;;;;;7.77;5.23;;;19.70;99.90;;;20.49;100.00;97517.63;5078108;28;20464;-78
2023/08/25 07:39:50;;;;;;;8.53;4.80;;;19.70;99.90;;;20.54;100.00;97504.38;5076605;28;20455;-77
2023/08/25 07:42:22;;;;;;;6.17;4.97;;;19.90;99.90;;;20.59;100.00;97496.41;5076505;28;20497;-77
2023/08/25 07:44:53;;;;;;;14.60;5.90;;;19.90;99.90;;;20.65;100.00;97488.44;5078358;28;20488;-77
2023/08/25 07:47:23;;;;;;;8.77;4.80;;;19.90;99.90;;;20.71;100.00;97496.16;5079998;28;20445;-77
2023/08/25 07:49:54;;;;;;;8.63;4.60;;;19.90;99.90;;;20.74;100.00;97494.81;5078685;28;20467;-77
2023/08/25 07:52:24;;;;;;;7.87;4.27;;;20.00;99.90;;;20.80;100.00;97496.41;5076121;28;20468;-77
2023/08/25 07:54:54;;;;;;;5.83;3.60;;;20.00;99.90;;;20.83;100.00;97501.97;5078631;28;20888;-77
2023/08/25 07:57:24;;;;;;;11.73;4.37;;;20.10;99.90;;;20.88;100.00;97507.31;5078414;28;20468;-77
2023/08/25 07:59:56;;;;;;;4.70;3.40;;;20.20;99.90;;;20.93;100.00;97515.28;5079021;28;20456;-77
2023/08/25 08:02:26;;;;;;;7.67;3.80;;;20.20;99.90;;;20.97;100.00;97518.19;5077955;28;20501;-77
2023/08/25 08:04:56;;;;;;;8.27;4.20;;;20.20;99.90;;;20.99;100.00;97532.03;5074060;28;20490;-77
2023/08/25 08:07:25;;;;;;;6.30;3.30;;;20.20;99.90;;;21.05;100.00;97549.59;5076653;28;20568;-77
2023/08/25 08:09:55;;;;;;;4.87;2.87;;;20.30;99.90;;;21.10;100.00;97546.97;5076436;28;20540;-78
2023/08/25 08:12:25;;;;;;;5.67;3.70;;;20.30;99.90;;;21.16;100.00;97548.56;5075165;28;20463;-77
2023/08/25 08:14:56;;;;;;;6.00;3.07;;;20.40;99.90;;;21.24;100.00;97540.03;5075501;28;20491;-77
2023/08/25 08:17:26;;;;;;;4.40;3.10;;;20.50;99.90;;;21.30;100.00;97528.34;5077752;28;20492;-77
2023/08/25 08:19:56;;;;;;;3.37;2.87;;;20.50;99.90;;;21.38;100.00;97527.75;5076249;28;20458;-77
2023/08/25 08:22:27;;;;;;;4.57;2.60;;;20.60;99.90;;;21.46;100.00;97518.44;5074545;28;20496;-77
2023/08/25 08:24:57;;;;;;;5.23;3.13;;;20.70;99.90;;;21.53;100.00;97527.75;5075526;28;20981;-77
2023/08/25 08:27:26;;;;;;;6.67;3.50;;;20.90;99.90;;;21.60;100.00;97532.78;5076552;28;20456;-77
2023/08/25 08:29:56;;;;;;;3.10;2.80;;;21.00;99.90;;;21.67;100.00;97543.16;5077434;28;20467;-77
2023/08/25 08:32:27;;;;;;;9.00;2.97;;;21.00;99.90;;;21.72;100.00;97549.28;5076834;28;20467;-78
2023/08/25 08:34:57;;;;;;;3.03;2.63;;;21.10;99.90;;;21.79;100.00;97562.28;5078556;28;20447;-78
2023/08/25 08:37:26;;;;;;;4.53;3.00;;;21.20;99.90;;;21.86;100.00;97562.81;5075490;28;20474;-77
2023/08/25 08:39:55;;;;;;;5.10;2.70;;;21.20;99.90;;;21.91;100.00;97565.47;5076046;28;20464;-78
2023/08/25 08:42:25;;;;;;;3.67;2.50;;;21.30;99.90;;;21.95;100.00;97577.97;5074783;28;20503;-77
2023/08/25 08:45:03;;;;;;;7.43;2.50;;;21.30;99.90;;;22.00;100.00;97577.19;5077649;28;20483;-77
2023/08/25 08:47:34;;;;;;;6.37;2.77;;;21.40;99.90;;;22.07;100.00;97567.03;5075669;28;20470;-77
2023/08/25 08:50:06;;;;;;;4.50;2.13;;;21.40;99.90;;;22.13;100.00;97571.25;5077323;28;20563;-77
2023/08/25 08:52:35;;;;;;;7.83;2.90;;;21.40;99.90;;;22.18;100.00;97570.44;5075491;28;20475;-77
2023/08/25 08:55:09;;;;;;;3.57;2.37;;;21.50;99.90;;;22.21;100.00;97570.72;5076414;28;21825;-77
2023/08/25 08:57:39;;;;;;;5.17;2.63;;;21.60;99.90;;;22.25;100.00;97576.28;5077534;28;21068;-78
2023/08/25 09:00:17;;;;;;;2.97;2.47;;;21.60;99.90;;;22.28;100.00;97562.41;5076223;28;20463;-77
2023/08/25 09:02:51;;;;;;;6.30;2.67;;;21.60;99.90;;;22.33;100.00;97562.38;5076696;28;20503;-78
2023/08/25 09:05:27;;;;;;;5.40;2.90;;;21.70;99.90;;;22.37;100.00;97558.09;5076662;28;20566;-78
2023/08/25 09:08:03;;;;;;;6.20;2.30;;;21.80;99.90;;;22.40;100.00;97555.69;5078991;28;20541;-77
2023/08/25 09:10:33;;;;;;;3.73;3.10;;;21.70;99.90;;;22.45;100.00;97553.00;5080341;28;20470;-77
2023/08/25 09:13:04;;;;;;;6.33;2.50;;;21.80;99.90;;;22.49;100.00;97553.25;5079171;28;20451;-77
2023/08/25 09:15:35;;;;;;;2.70;2.40;;;21.80;99.90;;;22.52;100.00;97550.03;5079002;28;20525;-78
2023/08/25 09:18:08;;;;;;;9.67;2.93;;;21.90;99.90;;;22.51;100.00;97546.56;5079545;28;20456;-81
2023/08/25 09:20:40;;;;;;;4.70;2.57;;;21.90;99.90;;;22.53;100.00;97541.75;5078358;28;20460;-79
2023/08/25 09:23:10;;;;;;;5.10;2.30;;;21.80;99.90;;;22.55;100.00;97544.94;5079137;28;20929;-78
2023/08/25 09:25:42;;;;;;;4.63;2.77;;;21.80;99.90;;;22.55;100.00;97554.81;5079928;28;20973;-77
2023/08/25 09:28:13;;;;;;;3.50;2.20;;;21.90;99.90;;;22.50;100.00;97549.50;5079655;28;20945;-77
2023/08/25 09:30:45;;;;;;;4.93;2.80;;;21.70;99.90;;;22.54;100.00;97555.88;5080587;28;20829;-76
2023/08/25 09:33:16;;;;;;;4.67;2.30;;;21.80;99.90;;;22.55;100.00;97560.13;5080682;28;20464;-77
2023/08/25 09:35:46;;;;;;;6.73;3.20;;;21.80;99.90;;;22.56;100.00;97565.16;5082026;28;20568;-78
2023/08/25 09:38:22;;;;;;;13.70;2.87;;;21.90;99.90;;;22.57;100.00;97564.09;5079322;28;20467;-77
2023/08/25 09:40:52;;;;;;;4.13;2.57;;;21.90;99.90;;;22.56;100.00;97554.50;5080189;28;20547;-77
2023/08/25 09:43:31;;;;;;;7.57;3.10;;;21.80;99.90;;;22.58;100.00;97544.38;5080256;28;20491;-77
2023/08/25 09:46:02;;;;;;;5.87;2.93;;;21.90;99.90;;;22.61;100.00;97540.38;5080836;28;20483;-78
2023/08/25 09:48:34;;;;;;;5.90;2.80;;;21.90;99.90;;;22.62;100.00;97546.50;5081212;28;20829;-77
2023/08/25 09:51:06;;;;;;;4.83;2.60;;;21.90;99.90;;;22.66;100.00;97520.88;5079837;28;20463;-78
2023/08/25 09:53:39;;;;;;;8.20;2.43;;;22.10;99.90;;;22.69;100.00;97513.16;5079567;28;20452;-77
2023/08/25 09:56:10;;;;;;;3.43;2.40;;;22.00;99.90;;;22.73;100.00;97532.06;5080563;28;20456;-77
2023/08/25 09:58:40;;;;;;;4.03;2.40;;;22.10;99.90;;;22.75;100.00;97511.25;5079755;28;20926;-77
2023/08/25 10:01:13;;;;;;;4.13;2.40;;;22.10;99.90;;;22.77;100.00;97509.09;5078612;28;20500;-77
2023/08/25 10:03:45;;;;;;;7.50;2.60;;;22.10;99.90;;;22.76;100.00;97510.16;5078883;28;21517;-77
2023/08/25 10:06:16;;;;;;;3.13;2.40;;;22.10;99.90;;;22.79;100.00;97501.63;5079939;28;20486;-77
2023/08/25 10:08:47;;;;;;;3.73;2.60;;;22.10;99.90;;;22.83;100.00;97495.44;5079833;28;20896;-78
2023/08/25 10:11:20;;;;;;;6.47;2.90;;;22.20;99.90;;;22.85;100.00;97505.81;5079298;28;20458;-77
2023/08/25 10:13:51;;;;;;;4.30;2.60;;;22.10;99.90;;;22.87;100.00;97507.13;5079514;28;20873;-77
2023/08/25 10:16:23;;;;;;;3.63;2.70;;;22.20;99.90;;;22.94;100.00;97506.84;5078609;28;20471;-77
2023/08/25 10:18:57;;;;;;;3.93;2.67;;;22.30;99.90;;;22.99;100.00;97517.44;5078714;28;20572;-77
2023/08/25 10:21:27;;;;;;;11.40;3.07;;;22.40;99.90;;;23.06;100.00;97523.25;5076697;28;20466;-77
2023/08/25 10:24:02;;;;;;;6.40;2.50;;;22.50;99.90;;;23.14;100.00;97524.53;5078963;28;20493;-77